Time;durP1;ratioP1;P1;durP2;ratioP2;P2;SDS_P1;SDS_P2;PMS_P1;PMS_P2;Temp;Humidity;BMP_temperature;BMP_pressure;BME280_temperature;BME280_humidity;BME280_pressure;Samples;Min_cycle;Max_cycle;Signal;HPM_P1;HPM_P2
2024/01/07 00:01:00;;;;;;;34.50;15.03;;;5.70;88.40;;;;;;4942713;28;20299;-70
2024/01/07 00:03:26;;;;;;;32.50;14.90;;;5.70;88.30;;;;;;4941649;28;20913;-72
2024/01/07 00:05:51;;;;;;;37.17;16.07;;;5.70;88.10;;;;;;4941792;28;20626;-73
2024/01/07 00:08:17;;;;;;;37.50;16.27;;;5.80;88.00;;;;;;4940434;28;20209;-72
2024/01/07 00:10:42;;;;;;;39.27;16.50;;;5.80;87.60;;;;;;4940305;28;20215;-71
2024/01/07 00:13:08;;;;;;;29.47;14.70;;;5.70;87.70;;;;;;4938803;28;20246;-71
2024/01/07 00:15:34;;;;;;;37.87;16.03;;;5.70;87.60;;;;;;4946255;28;20194;-70
2024/01/07 00:17:59;;;;;;;36.67;14.97;;;5.50;87.60;;;;;;4943152;28;20605;-72
2024/01/07 00:20:25;;;;;;;38.67;17.20;;;5.60;87.70;;;;;;4940090;28;20250;-72
2024/01/07 00:22:50;;;;;;;38.37;16.20;;;5.70;87.80;;;;;;4941566;28;20184;-73
2024/01/07 00:25:18;;;;;;;35.60;14.73;;;5.60;87.70;;;;;;4943557;28;20195;-73
2024/01/07 00:27:43;;;;;;;36.20;16.60;;;5.60;87.70;;;;;;4942853;28;20188;-72
2024/01/07 00:30:09;;;;;;;37.73;15.60;;;5.60;87.70;;;;;;4941878;28;20992;-71
2024/01/07 00:32:35;;;;;;;40.30;17.40;;;5.70;87.70;;;;;;4946824;28;20184;-69
2024/01/07 00:35:01;;;;;;;34.13;14.63;;;5.50;87.60;;;;;;4944932;28;20443;-70
2024/01/07 00:37:26;;;;;;;32.40;15.23;;;5.40;87.70;;;;;;4945886;28;20179;-71
2024/01/07 00:39:52;;;;;;;32.40;15.27;;;5.30;88.10;;;;;;4943460;28;20618;-70
2024/01/07 00:42:17;;;;;;;32.70;13.00;;;5.30;88.40;;;;;;4945496;28;20196;-72
2024/01/07 00:44:43;;;;;;;32.57;13.47;;;5.40;88.40;;;;;;4945268;28;20548;-72
2024/01/07 00:47:08;;;;;;;31.37;14.90;;;5.40;88.30;;;;;;4948088;28;20203;-71
2024/01/07 00:49:34;;;;;;;30.10;13.23;;;5.30;88.30;;;;;;4947451;28;20215;-70
2024/01/07 00:52:00;;;;;;;33.20;14.43;;;5.30;88.40;;;;;;4945291;28;20665;-70
2024/01/07 00:54:25;;;;;;;36.73;14.90;;;5.30;88.60;;;;;;4947337;28;20232;-69
2024/01/07 00:56:51;;;;;;;36.53;14.73;;;5.40;88.60;;;;;;4949807;28;20179;-71
2024/01/07 00:59:16;;;;;;;28.77;13.50;;;5.50;88.30;;;;;;4950489;28;20617;-71
2024/01/07 01:01:42;;;;;;;46.53;16.23;;;5.40;88.10;;;;;;4943018;28;20204;-69
2024/01/07 01:04:07;;;;;;;38.33;16.53;;;5.30;88.00;;;;;;4948702;28;20192;-70
2024/01/07 01:06:33;;;;;;;32.33;14.73;;;5.30;88.10;;;;;;4950726;28;20652;-70
2024/01/07 01:08:58;;;;;;;38.90;16.97;;;5.30;88.30;;;;;;4950271;28;20319;-70
2024/01/07 01:11:24;;;;;;;32.27;16.60;;;5.30;88.60;;;;;;4945009;28;20204;-69
2024/01/07 01:13:50;;;;;;;32.07;14.37;;;5.20;88.90;;;;;;4949979;28;20286;-71
2024/01/07 01:16:15;;;;;;;44.60;16.90;;;5.30;89.00;;;;;;4949728;28;20192;-72
2024/01/07 01:18:41;;;;;;;36.40;15.50;;;5.30;89.00;;;;;;4947777;28;20196;-71
2024/01/07 01:21:07;;;;;;;35.13;15.07;;;5.30;89.20;;;;;;4942869;28;20236;-70
2024/01/07 01:23:33;;;;;;;39.17;15.27;;;5.40;89.20;;;;;;4946518;28;20192;-72
2024/01/07 01:25:59;;;;;;;44.33;16.80;;;5.40;89.00;;;;;;4973328;28;20427;-72
2024/01/07 01:28:24;;;;;;;43.37;15.87;;;5.30;88.70;;;;;;4944545;28;20216;-72
2024/01/07 01:30:50;;;;;;;41.30;17.33;;;5.30;88.70;;;;;;4941111;28;20242;-70
2024/01/07 01:33:15;;;;;;;38.87;16.97;;;5.40;89.00;;;;;;4948596;28;20200;-70
2024/01/07 01:35:41;;;;;;;43.17;16.83;;;5.50;89.00;;;;;;4944178;28;20195;-70
2024/01/07 01:38:07;;;;;;;45.50;17.27;;;5.50;89.00;;;;;;4947284;28;20180;-69
2024/01/07 01:40:32;;;;;;;43.87;16.93;;;5.50;88.70;;;;;;4959569;28;20235;-72
2024/01/07 01:42:58;;;;;;;44.47;17.83;;;5.40;88.70;;;;;;4950844;28;20250;-70
2024/01/07 01:45:23;;;;;;;50.27;20.07;;;5.40;89.00;;;;;;4947341;28;20250;-70
2024/01/07 01:47:49;;;;;;;46.10;18.17;;;5.30;89.00;;;;;;4960104;28;20223;-70
2024/01/07 01:50:17;;;;;;;56.10;20.87;;;5.20;89.30;;;;;;4977796;28;20211;-71
2024/01/07 01:52:44;;;;;;;56.93;20.83;;;5.20;89.50;;;;;;4948571;28;20664;-72
2024/01/07 01:55:10;;;;;;;44.93;17.80;;;5.20;89.60;;;;;;4969741;28;20505;-71
2024/01/07 01:57:38;;;;;;;54.97;20.70;;;5.20;89.90;;;;;;4953403;28;20928;-71
2024/01/07 02:00:08;;;;;;;50.67;18.67;;;5.20;90.00;;;;;;4946143;28;20468;-72
2024/01/07 02:02:34;;;;;;;70.13;21.63;;;5.20;90.00;;;;;;4948104;28;20432;-72
2024/01/07 02:05:03;;;;;;;52.90;20.03;;;5.20;90.00;;;;;;4950574;28;20416;-71
2024/01/07 02:07:30;;;;;;;54.87;19.60;;;5.20;90.10;;;;;;4965381;28;20412;-70
2024/01/07 02:09:56;;;;;;;45.47;18.10;;;5.20;90.10;;;;;;4955498;28;20475;-72
2024/01/07 02:12:22;;;;;;;53.43;19.87;;;5.10;90.10;;;;;;4949165;28;20439;-72
2024/01/07 02:14:47;;;;;;;55.73;21.03;;;5.10;90.20;;;;;;4951580;28;20188;-73
2024/01/07 02:17:14;;;;;;;57.23;19.97;;;5.20;90.30;;;;;;4948986;28;20430;-72
2024/01/07 02:19:39;;;;;;;58.33;19.87;;;5.20;90.30;;;;;;4948132;28;20217;-72
2024/01/07 02:22:05;;;;;;;52.47;19.20;;;5.30;90.20;;;;;;4946381;28;20452;-72
2024/01/07 02:24:32;;;;;;;44.33;19.10;;;5.30;90.20;;;;;;4949370;28;20526;-71
2024/01/07 02:26:58;;;;;;;49.57;20.43;;;5.30;90.10;;;;;;4945239;28;20208;-71
2024/01/07 02:29:23;;;;;;;55.73;18.90;;;5.30;90.10;;;;;;4949670;28;20475;-72
2024/01/07 02:31:49;;;;;;;47.90;19.70;;;5.30;90.00;;;;;;4939796;28;20607;-72
2024/01/07 02:34:15;;;;;;;56.57;22.07;;;5.30;90.00;;;;;;4950091;28;20678;-71
2024/01/07 02:36:40;;;;;;;51.27;19.63;;;5.20;89.90;;;;;;4943921;28;20427;-70
2024/01/07 02:39:06;;;;;;;56.40;20.63;;;5.20;90.00;;;;;;4945006;28;20315;-70
2024/01/07 02:41:31;;;;;;;44.47;18.20;;;5.20;90.10;;;;;;4947929;28;20691;-71
2024/01/07 02:43:57;;;;;;;57.73;22.73;;;5.20;90.20;;;;;;4950140;28;20188;-70
2024/01/07 02:46:24;;;;;;;53.03;20.43;;;5.20;90.30;;;;;;4949938;28;20194;-71
2024/01/07 02:48:49;;;;;;;52.27;22.63;;;5.20;90.20;;;;;;4958143;28;20220;-71
2024/01/07 02:51:15;;;;;;;52.37;18.30;;;5.20;90.20;;;;;;4946497;28;20470;-71
2024/01/07 02:53:40;;;;;;;48.53;20.27;;;5.20;90.20;;;;;;4947595;28;20226;-70
2024/01/07 02:56:08;;;;;;;46.00;19.87;;;5.20;90.30;;;;;;4947543;28;20196;-71
2024/01/07 02:58:34;;;;;;;45.10;21.17;;;5.20;90.40;;;;;;4946559;28;20571;-70
2024/01/07 03:01:00;;;;;;;51.70;23.50;;;5.20;90.30;;;;;;4941263;28;20467;-69
2024/01/07 03:03:25;;;;;;;52.70;21.73;;;5.20;90.30;;;;;;4946606;28;20263;-70
2024/01/07 03:05:51;;;;;;;51.40;21.50;;;5.20;90.30;;;;;;4954471;28;20424;-70
2024/01/07 03:08:18;;;;;;;46.70;19.03;;;5.20;90.30;;;;;;4952487;28;20204;-71
2024/01/07 03:10:43;;;;;;;51.27;21.47;;;5.40;90.30;;;;;;4938736;28;20261;-69
2024/01/07 03:13:09;;;;;;;50.47;20.00;;;5.20;90.10;;;;;;4946936;28;20424;-72
2024/01/07 03:15:34;;;;;;;61.37;22.83;;;5.20;90.10;;;;;;4949658;28;20577;-72
2024/01/07 03:18:00;;;;;;;46.80;19.90;;;5.20;90.10;;;;;;4950691;28;20688;-71
2024/01/07 03:20:26;;;;;;;51.17;20.97;;;5.20;90.10;;;;;;4942967;28;20997;-73
2024/01/07 03:22:51;;;;;;;45.50;19.77;;;5.30;90.10;;;;;;4948405;28;20259;-70
2024/01/07 03:25:17;;;;;;;43.23;19.87;;;5.20;89.90;;;;;;4947235;28;20695;-70
2024/01/07 03:27:42;;;;;;;45.70;20.13;;;5.30;90.00;;;;;;4948124;28;20229;-72
2024/01/07 03:30:09;;;;;;;45.63;19.40;;;5.30;89.90;;;;;;4953468;28;20211;-71
2024/01/07 03:32:35;;;;;;;38.77;17.07;;;5.20;89.60;;;;;;4947782;28;20188;-71
2024/01/07 03:35:01;;;;;;;51.23;20.37;;;5.30;89.70;;;;;;4946968;28;20440;-70
2024/01/07 03:37:27;;;;;;;42.43;19.70;;;5.20;89.60;;;;;;4945474;28;20685;-72
2024/01/07 03:39:52;;;;;;;46.43;19.70;;;5.30;89.50;;;;;;4944717;28;20530;-71
2024/01/07 03:42:19;;;;;;;40.87;17.67;;;5.20;89.30;;;;;;4949749;28;20234;-70
2024/01/07 03:44:44;;;;;;;31.60;16.27;;;5.10;89.50;;;;;;4949378;28;20672;-70
2024/01/07 03:47:10;;;;;;;36.83;17.00;;;5.20;89.50;;;;;;4949065;28;20415;-70
2024/01/07 03:49:38;;;;;;;45.93;18.90;;;5.20;89.50;;;;;;4945927;28;20667;-68
2024/01/07 03:52:06;;;;;;;44.17;18.67;;;5.30;89.50;;;;;;4942543;28;20671;-68
2024/01/07 03:54:32;;;;;;;39.23;17.27;;;5.20;89.00;;;;;;4942042;28;20920;-70
2024/01/07 03:56:57;;;;;;;41.30;17.57;;;5.40;89.20;;;;;;4945419;28;20444;-71
2024/01/07 03:59:24;;;;;;;38.07;17.70;;;5.50;89.20;;;;;;4943784;28;20862;-68
2024/01/07 04:01:54;;;;;;;38.07;17.80;;;5.40;88.60;;;;;;4942974;28;20299;-70
2024/01/07 04:04:19;;;;;;;42.90;18.90;;;5.40;88.40;;;;;;4942443;28;20440;-70
2024/01/07 04:06:45;;;;;;;36.67;17.50;;;5.40;88.10;;;;;;4948593;28;20423;-72
2024/01/07 04:09:10;;;;;;;32.57;15.27;;;5.40;88.00;;;;;;4947291;28;20298;-70
2024/01/07 04:11:43;;;;;;;32.97;15.87;;;5.40;88.10;;;;;;4947613;28;20196;-70
2024/01/07 04:14:09;;;;;;;40.67;18.23;;;5.30;88.00;;;;;;4949500;28;20648;-70
2024/01/07 04:16:35;;;;;;;37.33;16.33;;;5.10;87.80;;;;;;4948011;28;20415;-70
2024/01/07 04:19:00;;;;;;;42.87;18.23;;;5.20;88.10;;;;;;4943757;28;20428;-70
2024/01/07 04:21:26;;;;;;;35.83;16.23;;;5.20;88.00;;;;;;4943708;28;20472;-72
2024/01/07 04:23:51;;;;;;;45.33;17.23;;;5.20;88.10;;;;;;4952387;28;20840;-71
2024/01/07 04:26:17;;;;;;;41.93;17.83;;;5.20;88.00;;;;;;4952039;28;20603;-70
2024/01/07 04:28:43;;;;;;;41.53;17.20;;;5.00;88.00;;;;;;4951347;28;20223;-70
2024/01/07 04:31:09;;;;;;;38.33;17.30;;;5.10;88.30;;;;;;4944861;28;20718;-72
2024/01/07 04:33:34;;;;;;;37.47;17.73;;;5.10;88.30;;;;;;4948198;28;20411;-72
2024/01/07 04:36:00;;;;;;;37.70;17.40;;;5.10;88.30;;;;;;4948946;28;20194;-71
2024/01/07 04:38:27;;;;;;;37.13;15.10;;;5.10;88.10;;;;;;4958960;28;20189;-71
2024/01/07 04:40:53;;;;;;;51.60;19.20;;;5.20;88.30;;;;;;4956059;28;20887;-71
2024/01/07 04:43:19;;;;;;;37.43;17.53;;;5.00;88.00;;;;;;4951301;28;20519;-69
2024/01/07 04:45:45;;;;;;;40.80;17.10;;;5.10;88.10;;;;;;4948015;28;20439;-70
2024/01/07 04:48:11;;;;;;;38.93;18.13;;;5.10;88.10;;;;;;4949254;28;20472;-70
2024/01/07 04:50:36;;;;;;;46.50;17.50;;;5.10;88.10;;;;;;4946317;28;20466;-69
2024/01/07 04:53:02;;;;;;;43.23;18.70;;;5.10;88.30;;;;;;4948219;28;20181;-71
2024/01/07 04:55:29;;;;;;;43.73;18.30;;;5.10;88.30;;;;;;4951342;28;20195;-72
2024/01/07 04:57:55;;;;;;;34.33;15.20;;;4.90;88.30;;;;;;4951510;28;20431;-70
2024/01/07 05:00:20;;;;;;;40.00;17.87;;;4.90;88.60;;;;;;4946135;28;20923;-69
2024/01/07 05:02:46;;;;;;;38.23;14.90;;;4.90;88.60;;;;;;4951368;28;20214;-70
2024/01/07 05:05:12;;;;;;;36.10;15.30;;;5.00;88.70;;;;;;4950773;28;20591;-71
2024/01/07 05:07:38;;;;;;;41.13;15.20;;;5.10;88.70;;;;;;4952163;28;20184;-70
2024/01/07 05:10:04;;;;;;;40.57;16.03;;;5.10;88.60;;;;;;4945390;28;20212;-70
2024/01/07 05:12:30;;;;;;;30.27;14.13;;;5.10;88.40;;;;;;4945611;28;20431;-70
2024/01/07 05:14:55;;;;;;;36.30;15.90;;;5.10;88.30;;;;;;4949584;28;21152;-71
2024/01/07 05:17:21;;;;;;;31.97;14.53;;;5.20;88.60;;;;;;4959976;28;20184;-69
2024/01/07 05:19:46;;;;;;;34.00;14.30;;;5.10;88.40;;;;;;4945180;28;20295;-70
2024/01/07 05:22:12;;;;;;;27.73;13.43;;;5.00;88.10;;;;;;4948000;28;20311;-70
2024/01/07 05:24:41;;;;;;;33.63;13.77;;;5.00;88.10;;;;;;4946705;28;20179;-71
2024/01/07 05:27:06;;;;;;;35.97;14.97;;;5.00;88.30;;;;;;4950901;28;20180;-70
2024/01/07 05:29:35;;;;;;;32.00;14.57;;;5.00;88.30;;;;;;4978191;28;20479;-71
2024/01/07 05:32:02;;;;;;;32.53;14.37;;;5.00;88.10;;;;;;4946035;28;20196;-70
2024/01/07 05:34:28;;;;;;;32.93;14.70;;;4.90;88.10;;;;;;4950101;28;20501;-71
2024/01/07 05:36:54;;;;;;;31.77;14.00;;;4.80;88.40;;;;;;4950721;28;20489;-69
2024/01/07 05:39:19;;;;;;;33.93;12.70;;;4.80;88.60;;;;;;4949689;28;20838;-71
2024/01/07 05:41:45;;;;;;;36.13;15.33;;;4.90;88.70;;;;;;4941144;28;20204;-69
2024/01/07 05:44:12;;;;;;;30.80;13.67;;;5.00;88.70;;;;;;4984126;28;20196;-68
2024/01/07 05:46:41;;;;;;;31.40;14.10;;;5.00;88.60;;;;;;4948344;28;20424;-69
2024/01/07 05:49:07;;;;;;;34.07;14.10;;;5.00;88.40;;;;;;4946995;28;20479;-68
2024/01/07 05:51:33;;;;;;;32.47;14.47;;;5.00;88.10;;;;;;4942738;28;20460;-69
2024/01/07 05:53:59;;;;;;;33.17;15.10;;;5.00;88.00;;;;;;4946330;28;20862;-70
2024/01/07 05:56:24;;;;;;;26.30;12.37;;;4.80;87.80;;;;;;4951254;28;20610;-70
2024/01/07 05:58:50;;;;;;;28.27;13.67;;;5.00;88.00;;;;;;4951963;28;20286;-70
2024/01/07 06:01:20;;;;;;;33.73;14.03;;;5.00;88.00;;;;;;4946556;28;20690;-70
2024/01/07 06:03:47;;;;;;;25.33;12.10;;;5.00;88.00;;;;;;4949165;28;20188;-71
2024/01/07 06:06:14;;;;;;;25.03;11.97;;;5.00;87.80;;;;;;4950033;28;20416;-70
2024/01/07 06:08:41;;;;;;;31.10;14.43;;;5.00;88.00;;;;;;4957716;28;20460;-70
2024/01/07 06:11:06;;;;;;;26.53;12.23;;;4.80;87.70;;;;;;4942527;28;20456;-70
2024/01/07 06:13:32;;;;;;;27.90;12.87;;;4.80;88.00;;;;;;4950435;28;20416;-70
2024/01/07 06:15:58;;;;;;;26.67;12.53;;;4.90;88.00;;;;;;4949052;28;20180;-69
2024/01/07 06:18:23;;;;;;;30.37;13.60;;;4.90;88.00;;;;;;4947231;28;20745;-69
2024/01/07 06:20:49;;;;;;;25.40;12.83;;;4.80;87.70;;;;;;4943067;28;20203;-71
2024/01/07 06:23:14;;;;;;;27.17;13.67;;;5.00;87.80;;;;;;4948892;28;20267;-72
2024/01/07 06:25:40;;;;;;;25.83;12.50;;;5.10;87.70;;;;;;4946173;28;20185;-71
2024/01/07 06:28:07;;;;;;;25.07;12.50;;;5.00;87.60;;;;;;4947170;28;20273;-71
2024/01/07 06:30:33;;;;;;;27.23;13.60;;;5.00;87.40;;;;;;4939957;28;20211;-69
2024/01/07 06:32:59;;;;;;;27.50;12.90;;;5.00;87.30;;;;;;4946455;28;20801;-70
2024/01/07 06:35:24;;;;;;;28.43;12.53;;;5.00;87.00;;;;;;4944244;28;20443;-70
2024/01/07 06:37:51;;;;;;;23.63;12.50;;;5.10;87.10;;;;;;4946145;28;20223;-70
2024/01/07 06:40:16;;;;;;;24.77;12.33;;;4.90;87.00;;;;;;4947438;28;20212;-70
2024/01/07 06:42:43;;;;;;;31.50;16.07;;;5.00;87.10;;;;;;4950012;28;20442;-70
2024/01/07 06:45:09;;;;;;;25.40;13.20;;;4.70;87.10;;;;;;4948432;28;20223;-71
2024/01/07 06:47:35;;;;;;;32.83;15.50;;;4.70;87.60;;;;;;4950462;28;20467;-71
2024/01/07 06:50:00;;;;;;;27.73;13.80;;;4.70;87.60;;;;;;4945817;28;20224;-71
2024/01/07 06:52:26;;;;;;;24.33;12.60;;;4.80;87.70;;;;;;4950308;28;20224;-68
2024/01/07 06:54:51;;;;;;;30.83;15.20;;;4.90;87.80;;;;;;4949157;28;20190;-71
2024/01/07 06:57:17;;;;;;;24.20;12.97;;;4.80;87.60;;;;;;4949780;28;20212;-70
2024/01/07 06:59:42;;;;;;;23.20;11.47;;;4.80;87.30;;;;;;4946232;28;20700;-69
2024/01/07 07:02:08;;;;;;;25.20;13.70;;;4.90;87.00;;;;;;4945865;28;20271;-68
2024/01/07 07:04:33;;;;;;;26.00;12.43;;;4.80;86.30;;;;;;4952095;28;20188;-71
2024/01/07 07:07:00;;;;;;;26.30;11.27;;;4.60;86.00;;;;;;4945102;28;20187;-71
2024/01/07 07:09:25;;;;;;;23.33;12.80;;;4.70;86.20;;;;;;4941165;28;20262;-70
2024/01/07 07:11:51;;;;;;;25.57;12.80;;;4.80;86.30;;;;;;4938435;28;20495;-70
2024/01/07 07:14:16;;;;;;;24.90;12.10;;;4.80;86.00;;;;;;4945411;28;20184;-70
2024/01/07 07:16:42;;;;;;;20.23;11.00;;;4.80;85.90;;;;;;4945195;28;20342;-70
2024/01/07 07:19:08;;;;;;;23.70;11.77;;;4.90;85.70;;;;;;4944832;28;20195;-70
2024/01/07 07:21:33;;;;;;;22.20;11.70;;;4.60;84.70;;;;;;4945089;28;20208;-72
2024/01/07 07:23:59;;;;;;;22.80;12.20;;;4.60;84.70;;;;;;4944874;28;20180;-72
2024/01/07 07:26:24;;;;;;;26.10;13.03;;;4.60;84.90;;;;;;4965442;28;20570;-70
2024/01/07 07:28:50;;;;;;;20.93;11.97;;;4.70;84.70;;;;;;4942672;28;20324;-72
2024/01/07 07:31:15;;;;;;;22.40;10.30;;;4.70;84.60;;;;;;4941873;28;20216;-70
2024/01/07 07:33:41;;;;;;;19.47;11.47;;;4.60;84.00;;;;;;4946972;28;20191;-72
2024/01/07 07:36:07;;;;;;;18.07;10.00;;;4.50;83.80;;;;;;4945069;28;20184;-69
2024/01/07 07:38:33;;;;;;;18.67;10.10;;;4.40;83.40;;;;;;4949083;28;20191;-70
2024/01/07 07:41:00;;;;;;;21.30;11.60;;;4.50;83.60;;;;;;4946033;28;20959;-73
2024/01/07 07:43:26;;;;;;;17.47;9.27;;;4.50;83.10;;;;;;4951953;28;20551;-70
2024/01/07 07:45:51;;;;;;;18.27;9.93;;;4.60;83.30;;;;;;4972171;28;20440;-70
2024/01/07 07:48:18;;;;;;;19.07;10.57;;;4.60;83.00;;;;;;4962410;28;20479;-71
2024/01/07 07:50:43;;;;;;;20.93;10.07;;;4.50;82.80;;;;;;4944459;28;20211;-70
2024/01/07 07:53:09;;;;;;;20.67;9.60;;;4.60;83.10;;;;;;4946132;28;20955;-70
2024/01/07 07:55:35;;;;;;;17.07;9.60;;;4.60;82.80;;;;;;4946649;28;20670;-70
2024/01/07 07:58:00;;;;;;;15.20;8.47;;;4.60;82.80;;;;;;4947843;28;20195;-70
2024/01/07 08:00:26;;;;;;;15.37;8.70;;;4.70;82.80;;;;;;4951473;28;20253;-70
2024/01/07 08:02:52;;;;;;;19.33;8.53;;;4.80;82.70;;;;;;4945309;28;20192;-70
2024/01/07 08:05:17;;;;;;;16.13;9.00;;;4.80;82.40;;;;;;4970724;28;20220;-70
2024/01/07 08:07:43;;;;;;;17.17;8.37;;;4.70;81.90;;;;;;4944497;28;20271;-69
2024/01/07 08:10:09;;;;;;;15.87;8.87;;;4.60;82.20;;;;;;4947445;28;20245;-69
2024/01/07 08:12:35;;;;;;;14.50;9.03;;;4.60;82.40;;;;;;4950011;28;20175;-69
2024/01/07 08:15:00;;;;;;;17.43;7.87;;;4.40;81.90;;;;;;4946596;28;20198;-70
2024/01/07 08:17:26;;;;;;;17.97;9.27;;;4.40;82.40;;;;;;4951709;28;20435;-70
2024/01/07 08:19:52;;;;;;;16.53;9.17;;;4.50;82.10;;;;;;4950083;28;20212;-70
2024/01/07 08:22:18;;;;;;;16.00;8.53;;;4.40;82.10;;;;;;4943102;28;20207;-71
2024/01/07 08:24:44;;;;;;;12.23;7.30;;;4.30;81.90;;;;;;4945444;28;20419;-70
2024/01/07 08:27:09;;;;;;;18.93;9.17;;;4.40;81.80;;;;;;4940046;28;20577;-69
2024/01/07 08:29:35;;;;;;;18.20;7.13;;;4.30;81.70;;;;;;4947552;28;20215;-71
2024/01/07 08:32:01;;;;;;;21.03;8.60;;;4.30;81.50;;;;;;4944184;28;20218;-71
2024/01/07 08:34:26;;;;;;;15.50;8.13;;;4.30;81.40;;;;;;4948761;28;20196;-70
2024/01/07 08:36:53;;;;;;;13.60;7.83;;;4.30;81.40;;;;;;4977628;28;20621;-71
2024/01/07 08:39:19;;;;;;;14.93;7.50;;;4.40;81.40;;;;;;4948499;28;20188;-70
2024/01/07 08:41:45;;;;;;;14.73;7.60;;;4.30;80.90;;;;;;4952108;28;20568;-70
2024/01/07 08:44:11;;;;;;;18.90;8.50;;;4.30;81.20;;;;;;4944166;28;20432;-71
2024/01/07 08:46:37;;;;;;;15.70;8.47;;;4.20;81.40;;;;;;4948862;28;20187;-71
2024/01/07 08:49:03;;;;;;;15.37;8.70;;;4.20;81.40;;;;;;4946356;28;20220;-71
2024/01/07 08:51:29;;;;;;;16.53;8.40;;;4.00;81.40;;;;;;4953403;28;20254;-71
2024/01/07 08:53:57;;;;;;;16.47;9.80;;;4.00;81.80;;;;;;4943672;28;20476;-68
2024/01/07 08:56:23;;;;;;;20.00;9.40;;;4.00;81.90;;;;;;4947215;28;20746;-69
2024/01/07 08:58:48;;;;;;;15.80;8.90;;;4.00;81.80;;;;;;4944137;28;20522;-70
2024/01/07 09:01:14;;;;;;;18.50;8.77;;;3.90;81.90;;;;;;4944537;28;20224;-71
2024/01/07 09:03:41;;;;;;;19.77;9.50;;;3.90;82.40;;;;;;4943717;28;20247;-71
2024/01/07 09:06:07;;;;;;;16.63;8.20;;;4.10;82.40;;;;;;4944189;28;20246;-67
2024/01/07 09:08:34;;;;;;;16.80;9.03;;;4.20;82.40;;;;;;4949936;28;20486;-73
2024/01/07 09:11:00;;;;;;;16.97;8.00;;;4.30;82.40;;;;;;4949102;28;20537;-70
2024/01/07 09:13:26;;;;;;;15.63;7.43;;;4.20;80.90;;;;;;4951697;28;20431;-71
2024/01/07 09:15:51;;;;;;;16.00;7.40;;;4.10;80.30;;;;;;4951687;28;20435;-71
2024/01/07 09:18:17;;;;;;;15.00;7.30;;;4.30;80.20;;;;;;4951247;28;20277;-72
2024/01/07 09:20:43;;;;;;;19.23;7.43;;;4.30;79.60;;;;;;4945718;28;20216;-72
2024/01/07 09:23:08;;;;;;;9.60;5.70;;;4.20;79.60;;;;;;4949268;28;20235;-71
2024/01/07 09:25:34;;;;;;;11.67;6.77;;;4.10;79.00;;;;;;4951667;28;20188;-71
2024/01/07 09:28:00;;;;;;;13.60;6.40;;;4.20;79.30;;;;;;4958986;28;20568;-71
2024/01/07 09:30:26;;;;;;;15.53;6.30;;;4.20;79.30;;;;;;4942986;28;20977;-71
2024/01/07 09:32:51;;;;;;;10.93;6.23;;;4.40;79.50;;;;;;4950393;28;20426;-69
2024/01/07 09:35:17;;;;;;;8.63;4.87;;;4.50;78.70;;;;;;4950614;28;20208;-72
2024/01/07 09:37:43;;;;;;;8.80;5.20;;;4.70;78.10;;;;;;4950989;28;20711;-71
2024/01/07 09:40:09;;;;;;;11.30;6.17;;;4.70;77.60;;;;;;4945925;28;20239;-70
2024/01/07 09:42:35;;;;;;;10.47;4.90;;;4.40;76.50;;;;;;4947446;28;20672;-72
2024/01/07 09:45:05;;;;;;;10.50;5.90;;;4.40;77.30;;;;;;4951174;28;20427;-72
2024/01/07 09:47:31;;;;;;;22.17;6.50;;;4.40;77.10;;;;;;4951088;28;20180;-72
2024/01/07 09:49:57;;;;;;;11.63;6.27;;;4.30;77.10;;;;;;4956803;28;21098;-73
2024/01/07 09:52:24;;;;;;;16.27;7.03;;;4.30;77.40;;;;;;4947566;28;20948;-71
2024/01/07 09:54:54;;;;;;;10.63;6.30;;;4.30;77.30;;;;;;4946825;28;20191;-71
2024/01/07 09:57:19;;;;;;;14.20;6.87;;;4.30;77.30;;;;;;4948484;28;20802;-72
2024/01/07 09:59:46;;;;;;;13.10;6.53;;;4.40;77.30;;;;;;4943997;28;20598;-71
2024/01/07 10:02:12;;;;;;;16.30;7.13;;;4.20;76.70;;;;;;4951215;28;20254;-73
2024/01/07 10:04:39;;;;;;;14.77;6.23;;;4.30;77.00;;;;;;4952751;28;20423;-69
2024/01/07 10:07:04;;;;;;;12.60;5.57;;;4.30;76.70;;;;;;4951276;28;20220;-70
2024/01/07 10:09:33;;;;;;;12.60;6.20;;;4.00;76.50;;;;;;4951328;28;20514;-71
2024/01/07 10:11:59;;;;;;;10.18;6.65;;;4.10;77.10;;;;;;4947144;28;20196;-71
2024/01/07 10:14:25;;;;;;;11.80;6.33;;;4.10;77.10;;;;;;4951572;28;20275;-69
2024/01/07 10:16:52;;;;;;;11.27;6.17;;;4.10;76.80;;;;;;4950297;28;20187;-70
2024/01/07 10:19:22;;;;;;;15.70;6.40;;;4.00;77.10;;;;;;4949062;28;20428;-70
2024/01/07 10:22:01;;;;;;;12.30;7.00;;;4.10;77.60;;;;;;4947026;28;20466;-72
2024/01/07 10:24:38;;;;;;;13.63;6.40;;;4.20;77.30;;;;;;4957415;28;20447;-72
2024/01/07 10:27:05;;;;;;;11.87;6.10;;;4.30;77.30;;;;;;4969155;28;20501;-69
2024/01/07 10:29:31;;;;;;;11.40;6.60;;;4.30;76.70;;;;;;4949171;28;20463;-70
2024/01/07 10:32:03;;;;;;;11.40;6.13;;;4.10;75.90;;;;;;4944449;28;20436;-71
2024/01/07 10:34:31;;;;;;;11.47;6.27;;;4.00;76.10;;;;;;4952731;28;20408;-71
2024/01/07 10:37:02;;;;;;;14.20;6.50;;;3.80;76.20;;;;;;4951420;28;20426;-73
2024/01/07 10:39:28;;;;;;;12.07;6.80;;;3.80;76.80;;;;;;4950188;28;20447;-70
2024/01/07 10:41:58;;;;;;;12.23;6.30;;;3.80;77.00;;;;;;4958112;28;20558;-70
2024/01/07 10:44:29;;;;;;;11.07;6.07;;;3.80;77.10;;;;;;4951537;28;20794;-71
2024/01/07 10:46:57;;;;;;;12.10;6.73;;;3.80;76.80;;;;;;4951427;28;20432;-70
2024/01/07 10:49:25;;;;;;;12.13;6.90;;;3.80;77.00;;;;;;4947641;28;20484;-71
2024/01/07 10:52:08;;;;;;;13.63;6.80;;;3.70;77.00;;;;;;4947867;28;20204;-71
2024/01/07 10:54:35;;;;;;;12.97;7.53;;;3.70;77.10;;;;;;4942744;28;20481;-70
2024/01/07 10:57:18;;;;;;;13.07;6.87;;;3.70;77.30;;;;;;4944446;28;20427;-70
2024/01/07 10:59:45;;;;;;;13.10;7.15;;;3.50;77.00;;;;;;4948269;28;20433;-72
2024/01/07 11:02:13;;;;;;;12.07;6.90;;;3.70;77.30;;;;;;4946555;28;20203;-69
2024/01/07 11:05:04;;;;;;;14.73;7.83;;;3.70;77.10;;;;;;4948710;28;20428;-70
2024/01/07 11:07:38;;;;;;;14.20;7.20;;;3.60;76.80;;;;;;4951549;28;20424;-71
2024/01/07 11:10:22;;;;;;;12.60;6.20;;;3.70;77.00;;;;;;4943946;28;20491;-71
2024/01/07 11:12:59;;;;;;;15.33;7.57;;;3.80;76.40;;;;;;4946320;28;20251;-71
2024/01/07 11:15:49;;;;;;;14.13;6.50;;;3.80;75.80;;;;;;4945924;28;20426;-70
2024/01/07 11:18:19;;;;;;;10.70;6.13;;;3.70;75.50;;;;;;4945254;28;20915;-70
2024/01/07 11:20:46;;;;;;;14.40;7.13;;;3.70;75.40;;;;;;4942543;28;20460;-71
2024/01/07 11:23:30;;;;;;;15.70;7.20;;;3.70;75.50;;;;;;4949746;28;20420;-71
2024/01/07 11:25:57;;;;;;;14.00;6.80;;;3.70;75.70;;;;;;4966185;28;20930;-71
2024/01/07 11:28:47;;;;;;;16.03;7.90;;;3.80;75.40;;;;;;4949725;28;20539;-71
2024/01/07 11:31:15;;;;;;;18.67;8.27;;;3.80;75.20;;;;;;4949370;28;20478;-72
2024/01/07 11:33:46;;;;;;;13.70;6.30;;;3.80;75.50;;;;;;4948977;28;20431;-70
2024/01/07 11:36:13;;;;;;;15.10;7.72;;;3.90;75.40;;;;;;4949326;28;20435;-70
2024/01/07 11:38:42;;;;;;;15.10;6.83;;;3.90;75.10;;;;;;4944913;28;20688;-73
2024/01/07 11:41:10;;;;;;;11.67;6.87;;;3.80;74.90;;;;;;4945619;28;20479;-70
2024/01/07 11:43:36;;;;;;;11.98;6.28;;;3.80;75.20;;;;;;4945873;28;20427;-70
2024/01/07 11:46:02;;;;;;;14.23;7.43;;;3.60;75.20;;;;;;4948384;28;20660;-72
2024/01/07 11:48:27;;;;;;;9.30;6.30;;;3.60;75.40;;;;;;4944415;28;20398;-71
2024/01/07 11:50:53;;;;;;;12.43;6.83;;;3.60;75.80;;;;;;4942990;28;20212;-70
2024/01/07 11:53:20;;;;;;;13.03;7.47;;;3.50;75.90;;;;;;4941944;28;20188;-70
2024/01/07 11:55:46;;;;;;;13.65;7.70;;;3.50;75.90;;;;;;4947202;28;20180;-73
2024/01/07 11:58:12;;;;;;;11.23;6.07;;;3.50;76.40;;;;;;4947182;28;20192;-71
2024/01/07 12:00:38;;;;;;;13.87;7.73;;;3.50;76.20;;;;;;4940120;28;20482;-69
2024/01/07 12:03:04;;;;;;;14.00;6.73;;;3.30;76.40;;;;;;4944246;28;20608;-72
2024/01/07 12:05:30;;;;;;;11.90;7.23;;;3.40;76.80;;;;;;4944855;28;20419;-73
2024/01/07 12:07:56;;;;;;;14.02;7.93;;;3.40;76.70;;;;;;4942925;28;20214;-71
2024/01/07 12:10:25;;;;;;;13.05;6.55;;;3.50;76.80;;;;;;4943615;28;20213;-71
2024/01/07 12:12:51;;;;;;;15.50;6.70;;;3.50;76.80;;;;;;4948505;28;20222;-71
2024/01/07 12:15:18;;;;;;;14.23;7.18;;;3.50;76.70;;;;;;4949418;28;20876;-70
2024/01/07 12:17:56;;;;;;;14.38;7.78;;;3.60;76.70;;;;;;4949095;28;20597;-71
2024/01/07 12:20:21;;;;;;;13.65;8.50;;;3.50;76.50;;;;;;4944475;28;20600;-70
2024/01/07 12:22:47;;;;;;;13.63;7.20;;;3.50;76.40;;;;;;4944974;28;20184;-72
2024/01/07 12:25:13;;;;;;;14.00;8.10;;;3.50;76.20;;;;;;4948011;28;20234;-70
2024/01/07 12:27:41;;;;;;;15.50;9.03;;;3.20;76.20;;;;;;4949590;28;20511;-72
2024/01/07 12:30:08;;;;;;;14.85;7.80;;;3.10;76.80;;;;;;4944210;28;20311;-70
2024/01/07 12:32:35;;;;;;;14.10;8.60;;;3.20;77.30;;;;;;4951941;28;20674;-69
2024/01/07 12:35:01;;;;;;;14.57;8.93;;;3.10;77.10;;;;;;4947373;28;20416;-71
2024/01/07 12:37:27;;;;;;;15.97;9.17;;;3.30;77.30;;;;;;4949076;28;20423;-71